Current | Forecast
Updated: 4:30 AM CEST on September 22, 2017
Observed at Budapest Ferihegy, Hungary
Temperature 11°C
Humidity 88%
Dew Point 9°C
Wind NW at 13 km/h
Pressure 1016 hPa (Rising)
Conditions Clear
Visibility -
UV N/A
Clouds
Yesterday's Maximum 12°C
Yesterday's Minimum 11°C approx.
Yesterday's Heating Degree Days 12 approx.
Sunrise6:27 AM CEST
Sunset6:38 PM CEST
Moon Rise8:34 AM CEST
Moon Set8:01 PM CEST
Moon PhaseMoon Phase
Waxing Crescent
Raw METARMETAR LHBP 220230Z 32007KT CAVOK 11/09 Q1016 NOSIG


Monday
. High: 66° F.
Tuesday
. High: 78° F.
Wednesday
. High: 82° F.
Thursday
. High: 82° F.
Friday
. High: 71° F.
Saturday
. High: 73° F.
Sunday
. High: 78° F.
Monday
. High: 75° F.

Units: English | Metric

Find the Weather for any City, State or Zipcode, or Country:

U.S. State List | Severe Weather | Tropical Storms | Ski Conditions
United States | Canada | Central America | South America | Asia | Europe | Australia | Africa | Islands

Weather Underground

© Copyright 2017
The Weather Company, LLC